SHT9W EGPH-EGLL
Flight info
| Callsign | SHT9W |
|---|---|
| Flight time | 1h 2m |
| Altitude | 33000 |
| Route | GOSAM DCT FENIK L612 ELBUS UL612 LAKEY DCT NUGRA |
| Aircraft | A319/M-SDE3FGHIRWY/LB1 |
Departure
| Time | 2026-04-24 22:03 |
|---|---|
| Airport | Edinburgh Airport (EGPH) |
Arrival
| Time | 2026-04-24 23:05 |
|---|---|
| Airport | London Heathrow Airport (EGLL) |
| Time | Latitude | Longitude | Altitude | Speed | Heading |
|---|---|---|---|---|---|
| 2026-04-24 21:41 | 55.94919 | -3.36428 | 116 ft | 0 kts | 148° |
| 2026-04-24 21:52 | 55.94919 | -3.36429 | 116 ft | 2 kts | 148° |
| 2026-04-24 21:53 | 55.94933 | -3.36443 | 113 ft | 2 kts | 152° |
| 2026-04-24 21:53 | 55.94948 | -3.36456 | 113 ft | 2 kts | 156° |
| 2026-04-24 21:53 | 55.94964 | -3.36466 | 114 ft | 2 kts | 166° |
| 2026-04-24 21:53 | 55.94980 | -3.36469 | 112 ft | 2 kts | 192° |
| 2026-04-24 21:54 | 55.94994 | -3.36454 | 112 ft | 2 kts | 231° |
| 2026-04-24 21:54 | 55.95000 | -3.36441 | 114 ft | 1 kts | 239° |
| 2026-04-24 21:54 | 55.95000 | -3.36440 | 114 ft | 0 kts | 239° |
| 2026-04-24 21:56 | 55.94999 | -3.36443 | 114 ft | 1 kts | 238° |
| 2026-04-24 21:56 | 55.94983 | -3.36490 | 114 ft | 9 kts | 238° |
| 2026-04-24 21:56 | 55.94937 | -3.36625 | 116 ft | 16 kts | 238° |
| 2026-04-24 21:57 | 55.94897 | -3.36793 | 116 ft | 13 kts | 292° |
| 2026-04-24 21:57 | 55.94927 | -3.36891 | 116 ft | 9 kts | 244° |
| 2026-04-24 21:57 | 55.94890 | -3.37003 | 114 ft | 12 kts | 238° |
| 2026-04-24 21:57 | 55.94841 | -3.37145 | 114 ft | 15 kts | 238° |
| 2026-04-24 21:58 | 55.94782 | -3.37314 | 114 ft | 17 kts | 238° |
| 2026-04-24 21:58 | 55.94717 | -3.37510 | 116 ft | 19 kts | 237° |
| 2026-04-24 21:58 | 55.94659 | -3.37678 | 114 ft | 21 kts | 238° |
| 2026-04-24 22:00 | 55.94587 | -3.37900 | 114 ft | 23 kts | 239° |
| 2026-04-24 22:00 | 55.94501 | -3.38151 | 114 ft | 24 kts | 237° |
| 2026-04-24 22:00 | 55.94411 | -3.38413 | 115 ft | 26 kts | 240° |
| 2026-04-24 22:00 | 55.94368 | -3.38541 | 115 ft | 2 kts | 239° |
| 2026-04-24 22:01 | 55.94311 | -3.38712 | 115 ft | 8 kts | 239° |
| 2026-04-24 22:01 | 55.94294 | -3.38764 | 115 ft | 1 kts | 239° |
| 2026-04-24 22:01 | 55.94282 | -3.38799 | 115 ft | 7 kts | 239° |
| 2026-04-24 22:02 | 55.94302 | -3.38883 | 116 ft | 10 kts | 334° |
| 2026-04-24 22:02 | 55.94368 | -3.38957 | 115 ft | 13 kts | 328° |
| 2026-04-24 22:02 | 55.94435 | -3.38910 | 113 ft | 13 kts | 56° |
| 2026-04-24 22:02 | 55.94583 | -3.38475 | 113 ft | 75 kts | 59° |
| 2026-04-24 22:03 | 55.94955 | -3.37378 | 111 ft | 127 kts | 58° |
| 2026-04-24 22:03 | 55.95473 | -3.35851 | 367 ft | 143 kts | 59° |
| 2026-04-24 22:03 | 55.95950 | -3.34405 | 969 ft | 138 kts | 59° |
| 2026-04-24 22:03 | 55.96594 | -3.33095 | 1406 ft | 144 kts | 40° |
| 2026-04-24 22:04 | 55.97379 | -3.31930 | 1854 ft | 151 kts | 39° |
| 2026-04-24 22:04 | 55.98234 | -3.30647 | 2188 ft | 170 kts | 39° |
| 2026-04-24 22:04 | 55.99183 | -3.29175 | 2598 ft | 190 kts | 40° |
| 2026-04-24 22:04 | 56.00348 | -3.27905 | 3043 ft | 206 kts | 12° |
| 2026-04-24 22:05 | 56.01812 | -3.28066 | 3453 ft | 224 kts | 336° |
| 2026-04-24 22:06 | 56.01019 | -3.48831 | 5990 ft | 271 kts | 255° |
| 2026-04-24 22:07 | 56.00547 | -3.52086 | 5991 ft | 271 kts | 256° |
| 2026-04-24 22:07 | 56.00086 | -3.55369 | 6058 ft | 273 kts | 256° |
| 2026-04-24 22:07 | 55.99625 | -3.58670 | 6574 ft | 275 kts | 256° |
| 2026-04-24 22:07 | 55.99158 | -3.61975 | 7566 ft | 273 kts | 257° |
| 2026-04-24 22:08 | 55.98689 | -3.65268 | 8495 ft | 277 kts | 257° |
| 2026-04-24 22:08 | 55.98208 | -3.68628 | 9421 ft | 280 kts | 257° |
| 2026-04-24 22:08 | 55.97722 | -3.72012 | 10331 ft | 283 kts | 257° |
| 2026-04-24 22:08 | 55.97220 | -3.75506 | 10855 ft | 301 kts | 257° |
| 2026-04-24 22:09 | 55.96681 | -3.79267 | 11143 ft | 324 kts | 257° |
| 2026-04-24 22:09 | 55.96107 | -3.83254 | 11652 ft | 336 kts | 257° |
| 2026-04-24 22:09 | 55.95516 | -3.87329 | 12448 ft | 340 kts | 257° |
| 2026-04-24 22:09 | 55.94919 | -3.91429 | 13217 ft | 344 kts | 257° |
| 2026-04-24 22:10 | 55.94312 | -3.95583 | 13982 ft | 349 kts | 257° |
| 2026-04-24 22:10 | 55.93532 | -3.99711 | 14685 ft | 355 kts | 244° |
| 2026-04-24 22:10 | 55.92084 | -4.03308 | 15387 ft | 361 kts | 229° |
| 2026-04-24 22:10 | 55.90218 | -4.06340 | 16100 ft | 365 kts | 220° |
| 2026-04-24 22:11 | 55.88162 | -4.09036 | 16809 ft | 369 kts | 216° |
| 2026-04-24 22:11 | 55.86030 | -4.11595 | 17515 ft | 371 kts | 215° |
| 2026-04-24 22:11 | 55.83864 | -4.14140 | 18209 ft | 374 kts | 214° |
| 2026-04-24 22:11 | 55.81682 | -4.16711 | 18858 ft | 377 kts | 214° |
| 2026-04-24 22:12 | 55.79497 | -4.19304 | 19435 ft | 380 kts | 215° |
| 2026-04-24 22:12 | 55.77304 | -4.21943 | 20003 ft | 383 kts | 216° |
| 2026-04-24 22:12 | 55.75058 | -4.24517 | 20567 ft | 386 kts | 207° |
| 2026-04-24 22:12 | 55.72495 | -4.26036 | 21127 ft | 392 kts | 190° |
| 2026-04-24 22:13 | 55.69759 | -4.26157 | 21665 ft | 397 kts | 173° |
| 2026-04-24 22:13 | 55.67093 | -4.24855 | 22207 ft | 401 kts | 156° |
| 2026-04-24 22:13 | 55.64614 | -4.22522 | 22732 ft | 405 kts | 151° |
| 2026-04-24 22:13 | 55.62153 | -4.20061 | 23284 ft | 408 kts | 151° |
| 2026-04-24 22:14 | 55.59666 | -4.17577 | 23802 ft | 412 kts | 151° |
| 2026-04-24 22:14 | 55.57153 | -4.15091 | 24249 ft | 415 kts | 151° |
| 2026-04-24 22:14 | 55.54628 | -4.12612 | 24689 ft | 418 kts | 152° |
| 2026-04-24 22:14 | 55.52072 | -4.10118 | 25120 ft | 421 kts | 152° |
| 2026-04-24 22:15 | 55.49501 | -4.07616 | 25528 ft | 424 kts | 152° |
| 2026-04-24 22:15 | 55.46909 | -4.05099 | 25946 ft | 426 kts | 152° |
| 2026-04-24 22:15 | 55.44306 | -4.02575 | 26354 ft | 429 kts | 152° |
| 2026-04-24 22:15 | 55.41680 | -4.00031 | 26761 ft | 432 kts | 152° |
| 2026-04-24 22:16 | 55.39035 | -3.97472 | 27137 ft | 435 kts | 152° |
| 2026-04-24 22:16 | 55.36371 | -3.94900 | 27507 ft | 438 kts | 152° |
| 2026-04-24 22:16 | 55.33681 | -3.92306 | 27886 ft | 440 kts | 152° |
| 2026-04-24 22:16 | 55.30989 | -3.89712 | 28245 ft | 443 kts | 152° |
| 2026-04-24 22:17 | 55.28278 | -3.87106 | 28582 ft | 446 kts | 152° |
| 2026-04-24 22:17 | 55.25549 | -3.84486 | 28918 ft | 448 kts | 152° |
| 2026-04-24 22:17 | 55.22803 | -3.81853 | 29267 ft | 450 kts | 152° |
| 2026-04-24 22:17 | 55.20045 | -3.79213 | 29559 ft | 453 kts | 152° |
| 2026-04-24 22:18 | 55.17226 | -3.76520 | 29871 ft | 456 kts | 152° |
| 2026-04-24 22:18 | 55.14481 | -3.73901 | 30173 ft | 458 kts | 152° |
| 2026-04-24 22:18 | 55.11675 | -3.71229 | 30454 ft | 460 kts | 152° |
| 2026-04-24 22:18 | 55.08850 | -3.68542 | 30728 ft | 462 kts | 152° |
| 2026-04-24 22:19 | 55.06017 | -3.65853 | 30990 ft | 464 kts | 152° |
| 2026-04-24 22:19 | 55.03170 | -3.63155 | 31270 ft | 466 kts | 152° |
| 2026-04-24 22:19 | 55.00309 | -3.60448 | 31612 ft | 467 kts | 152° |
| 2026-04-24 22:19 | 54.97454 | -3.57750 | 31984 ft | 466 kts | 152° |
| 2026-04-24 22:20 | 54.94607 | -3.55065 | 32342 ft | 465 kts | 152° |
| 2026-04-24 22:20 | 54.91752 | -3.52377 | 32703 ft | 465 kts | 152° |
| 2026-04-24 22:20 | 54.88868 | -3.49666 | 33060 ft | 464 kts | 152° |
| 2026-04-24 22:20 | 54.86062 | -3.47032 | 33256 ft | 464 kts | 152° |
| 2026-04-24 22:21 | 54.83224 | -3.44372 | 33248 ft | 462 kts | 152° |
| 2026-04-24 22:21 | 54.77529 | -3.39049 | 33252 ft | 462 kts | 152° |
| 2026-04-24 22:22 | 54.71872 | -3.33885 | 33255 ft | 463 kts | 155° |
| 2026-04-24 22:22 | 54.65944 | -3.29371 | 33255 ft | 463 kts | 157° |
| 2026-04-24 22:23 | 54.60072 | -3.24972 | 33252 ft | 463 kts | 157° |
| 2026-04-24 22:23 | 54.54123 | -3.20521 | 33253 ft | 463 kts | 156° |
| 2026-04-24 22:24 | 54.48242 | -3.16136 | 33255 ft | 463 kts | 157° |
| 2026-04-24 22:24 | 54.42323 | -3.11739 | 33252 ft | 463 kts | 156° |
| 2026-04-24 22:25 | 54.36397 | -3.07349 | 33247 ft | 463 kts | 157° |
| 2026-04-24 22:25 | 54.30478 | -3.02980 | 33247 ft | 464 kts | 157° |
| 2026-04-24 22:26 | 54.25515 | -2.99330 | 33246 ft | 464 kts | 157° |
| 2026-04-24 22:26 | 54.19485 | -2.95574 | 33244 ft | 464 kts | 162° |
| 2026-04-24 22:27 | 54.13345 | -2.92063 | 33253 ft | 465 kts | 161° |
| 2026-04-24 22:27 | 54.07218 | -2.88546 | 33252 ft | 465 kts | 161° |
| 2026-04-24 22:28 | 54.01032 | -2.85008 | 33252 ft | 465 kts | 161° |
| 2026-04-24 22:28 | 53.94899 | -2.81513 | 33255 ft | 465 kts | 161° |
| 2026-04-24 22:29 | 53.85677 | -2.76277 | 33259 ft | 465 kts | 161° |
| 2026-04-24 22:29 | 53.79531 | -2.72802 | 33260 ft | 465 kts | 161° |
| 2026-04-24 22:30 | 53.73382 | -2.69334 | 33259 ft | 465 kts | 161° |
| 2026-04-24 22:30 | 53.67250 | -2.65874 | 33292 ft | 465 kts | 163° |
| 2026-04-24 22:31 | 53.61113 | -2.62430 | 33283 ft | 464 kts | 163° |
| 2026-04-24 22:31 | 53.54994 | -2.59013 | 33278 ft | 462 kts | 163° |
| 2026-04-24 22:32 | 53.48856 | -2.55596 | 33266 ft | 461 kts | 163° |
| 2026-04-24 22:32 | 53.42696 | -2.52178 | 33258 ft | 460 kts | 163° |
| 2026-04-24 22:33 | 53.36534 | -2.48770 | 33253 ft | 459 kts | 163° |
| 2026-04-24 22:33 | 53.30481 | -2.45432 | 33248 ft | 458 kts | 163° |
| 2026-04-24 22:34 | 53.24285 | -2.42025 | 33244 ft | 458 kts | 163° |
| 2026-04-24 22:34 | 53.18245 | -2.38713 | 33243 ft | 458 kts | 163° |
| 2026-04-24 22:35 | 53.12183 | -2.35399 | 33240 ft | 458 kts | 163° |
| 2026-04-24 22:35 | 53.06119 | -2.32091 | 33243 ft | 459 kts | 163° |
| 2026-04-24 22:36 | 53.00276 | -2.27582 | 33251 ft | 463 kts | 150° |
| 2026-04-24 22:36 | 52.94840 | -2.21832 | 33252 ft | 463 kts | 149° |
| 2026-04-24 22:37 | 52.89417 | -2.16160 | 33252 ft | 464 kts | 149° |
| 2026-04-24 22:37 | 52.83918 | -2.10426 | 33256 ft | 465 kts | 149° |
| 2026-04-24 22:38 | 52.78476 | -2.04764 | 33262 ft | 465 kts | 149° |
| 2026-04-24 22:38 | 52.72979 | -1.99061 | 33259 ft | 466 kts | 150° |
| 2026-04-24 22:39 | 52.67475 | -1.93368 | 33261 ft | 467 kts | 150° |
| 2026-04-24 22:39 | 52.61967 | -1.87687 | 33239 ft | 466 kts | 150° |
| 2026-04-24 22:40 | 52.59226 | -1.84865 | 32835 ft | 465 kts | 150° |
| 2026-04-24 22:40 | 52.56466 | -1.82030 | 31979 ft | 469 kts | 150° |
| 2026-04-24 22:40 | 52.53674 | -1.79170 | 30930 ft | 476 kts | 150° |
| 2026-04-24 22:40 | 52.50833 | -1.76262 | 29644 ft | 486 kts | 150° |
| 2026-04-24 22:41 | 52.47961 | -1.73325 | 28716 ft | 486 kts | 150° |
| 2026-04-24 22:41 | 52.45116 | -1.70416 | 28018 ft | 480 kts | 150° |
| 2026-04-24 22:41 | 52.42283 | -1.67525 | 27302 ft | 476 kts | 150° |
| 2026-04-24 22:41 | 52.40421 | -1.65628 | 26817 ft | 473 kts | 150° |
| 2026-04-24 22:42 | 52.36699 | -1.61842 | 25895 ft | 468 kts | 150° |
| 2026-04-24 22:42 | 52.33947 | -1.59049 | 25240 ft | 464 kts | 150° |
| 2026-04-24 22:42 | 52.31213 | -1.56279 | 24593 ft | 460 kts | 150° |
| 2026-04-24 22:42 | 52.28504 | -1.53537 | 23960 ft | 456 kts | 151° |
| 2026-04-24 22:43 | 52.26687 | -1.51701 | 23482 ft | 453 kts | 150° |
| 2026-04-24 22:43 | 52.23228 | -1.48214 | 22721 ft | 444 kts | 150° |
| 2026-04-24 22:43 | 52.20664 | -1.45277 | 22118 ft | 439 kts | 142° |
| 2026-04-24 22:43 | 52.18355 | -1.42042 | 21536 ft | 433 kts | 140° |
| 2026-04-24 22:44 | 52.16094 | -1.38866 | 20961 ft | 427 kts | 140° |
| 2026-04-24 22:44 | 52.13851 | -1.35733 | 20390 ft | 421 kts | 140° |
| 2026-04-24 22:44 | 52.11644 | -1.32660 | 19830 ft | 415 kts | 140° |
| 2026-04-24 22:44 | 52.09466 | -1.29634 | 19289 ft | 409 kts | 140° |
| 2026-04-24 22:45 | 52.07318 | -1.26655 | 18749 ft | 403 kts | 140° |
| 2026-04-24 22:45 | 52.05193 | -1.23709 | 18132 ft | 398 kts | 140° |
| 2026-04-24 22:45 | 52.03102 | -1.20811 | 17435 ft | 395 kts | 140° |
| 2026-04-24 22:45 | 52.01018 | -1.17925 | 16768 ft | 391 kts | 140° |
| 2026-04-24 22:46 | 51.99615 | -1.15983 | 16330 ft | 389 kts | 140° |
| 2026-04-24 22:46 | 51.96921 | -1.12261 | 15544 ft | 383 kts | 140° |
| 2026-04-24 22:46 | 51.95576 | -1.10404 | 15356 ft | 375 kts | 140° |
| 2026-04-24 22:46 | 51.93612 | -1.07693 | 14856 ft | 369 kts | 140° |
| 2026-04-24 22:47 | 51.91645 | -1.04984 | 14074 ft | 374 kts | 140° |
| 2026-04-24 22:47 | 51.89674 | -1.02272 | 13607 ft | 366 kts | 140° |
| 2026-04-24 22:47 | 51.87754 | -0.99634 | 13192 ft | 358 kts | 140° |
| 2026-04-24 22:47 | 51.86482 | -0.97882 | 12893 ft | 354 kts | 138° |
| 2026-04-24 22:49 | 51.79933 | -0.82450 | 12026 ft | 278 kts | 155° |
| 2026-04-24 22:49 | 51.78137 | -0.81664 | 11895 ft | 262 kts | 177° |
| 2026-04-24 22:49 | 51.76298 | -0.81539 | 11786 ft | 281 kts | 178° |
| 2026-04-24 22:49 | 51.74315 | -0.81376 | 11658 ft | 276 kts | 177° |
| 2026-04-24 22:50 | 51.72450 | -0.81207 | 11522 ft | 261 kts | 177° |
| 2026-04-24 22:50 | 51.70639 | -0.81042 | 11406 ft | 261 kts | 177° |
| 2026-04-24 22:50 | 51.68823 | -0.80880 | 11276 ft | 261 kts | 177° |
| 2026-04-24 22:50 | 51.67038 | -0.80724 | 11159 ft | 262 kts | 177° |
| 2026-04-24 22:51 | 51.65211 | -0.80565 | 11038 ft | 261 kts | 177° |
| 2026-04-24 22:51 | 51.63402 | -0.80410 | 10909 ft | 260 kts | 176° |
| 2026-04-24 22:51 | 51.61583 | -0.80255 | 10590 ft | 257 kts | 176° |
| 2026-04-24 22:51 | 51.59799 | -0.80105 | 10057 ft | 256 kts | 176° |
| 2026-04-24 22:52 | 51.58022 | -0.79956 | 9450 ft | 254 kts | 176° |
| 2026-04-24 22:52 | 51.56262 | -0.79806 | 8846 ft | 252 kts | 176° |
| 2026-04-24 22:52 | 51.54544 | -0.79658 | 8271 ft | 249 kts | 176° |
| 2026-04-24 22:52 | 51.52801 | -0.79541 | 7697 ft | 247 kts | 180° |
| 2026-04-24 22:53 | 51.51080 | -0.79569 | 7137 ft | 244 kts | 180° |
| 2026-04-24 22:53 | 51.49403 | -0.79609 | 6585 ft | 242 kts | 181° |
| 2026-04-24 22:53 | 51.47721 | -0.79648 | 6035 ft | 239 kts | 180° |
| 2026-04-24 22:53 | 51.46069 | -0.79683 | 5487 ft | 237 kts | 181° |
| 2026-04-24 22:54 | 51.44429 | -0.79716 | 4958 ft | 234 kts | 180° |
| 2026-04-24 22:54 | 51.42811 | -0.79755 | 4411 ft | 231 kts | 180° |
| 2026-04-24 22:54 | 51.41210 | -0.79809 | 3867 ft | 230 kts | 180° |
| 2026-04-24 22:54 | 51.39636 | -0.80096 | 3326 ft | 229 kts | 200° |
| 2026-04-24 22:55 | 51.38376 | -0.81615 | 3048 ft | 233 kts | 235° |
| 2026-04-24 22:55 | 51.37853 | -0.84035 | 2994 ft | 235 kts | 268° |
| 2026-04-24 22:55 | 51.37855 | -0.86652 | 2983 ft | 231 kts | 271° |
| 2026-04-24 22:55 | 51.37885 | -0.89228 | 2984 ft | 210 kts | 271° |
| 2026-04-24 22:56 | 51.37914 | -0.91479 | 2986 ft | 192 kts | 271° |
| 2026-04-24 22:56 | 51.37942 | -0.93564 | 2991 ft | 193 kts | 271° |
| 2026-04-24 22:56 | 51.38107 | -0.95684 | 2966 ft | 192 kts | 293° |
| 2026-04-24 22:56 | 51.38982 | -0.97263 | 2970 ft | 194 kts | 334° |
| 2026-04-24 22:57 | 51.40282 | -0.97684 | 2971 ft | 192 kts | 0° |
| 2026-04-24 22:57 | 51.41610 | -0.97637 | 2968 ft | 191 kts | 2° |
| 2026-04-24 22:57 | 51.42933 | -0.97667 | 2970 ft | 191 kts | 1° |
| 2026-04-24 22:57 | 51.44281 | -0.97712 | 2988 ft | 190 kts | 2° |
| 2026-04-24 22:58 | 51.45493 | -0.97119 | 2988 ft | 187 kts | 40° |
| 2026-04-24 22:58 | 51.46209 | -0.95430 | 2995 ft | 185 kts | 70° |
| 2026-04-24 22:58 | 51.46679 | -0.93495 | 2987 ft | 184 kts | 71° |
| 2026-04-24 22:58 | 51.47133 | -0.91599 | 2987 ft | 184 kts | 72° |
| 2026-04-24 22:59 | 51.47459 | -0.89625 | 2993 ft | 183 kts | 82° |
| 2026-04-24 22:59 | 51.47580 | -0.87595 | 2985 ft | 183 kts | 89° |
| 2026-04-24 22:59 | 51.47619 | -0.83660 | 3004 ft | 185 kts | 91° |
| 2026-04-24 23:00 | 51.47627 | -0.81534 | 2988 ft | 192 kts | 90° |
| 2026-04-24 23:00 | 51.47636 | -0.79386 | 2989 ft | 193 kts | 90° |
| 2026-04-24 23:00 | 51.47644 | -0.77241 | 2990 ft | 193 kts | 90° |
| 2026-04-24 23:00 | 51.47652 | -0.75078 | 2990 ft | 193 kts | 90° |
| 2026-04-24 23:01 | 51.47660 | -0.72984 | 2981 ft | 176 kts | 90° |
| 2026-04-24 23:01 | 51.47667 | -0.71150 | 2915 ft | 159 kts | 90° |
| 2026-04-24 23:01 | 51.47673 | -0.69371 | 2701 ft | 160 kts | 90° |
| 2026-04-24 23:01 | 51.47679 | -0.67590 | 2484 ft | 159 kts | 90° |
| 2026-04-24 23:02 | 51.47686 | -0.65907 | 2262 ft | 138 kts | 90° |
| 2026-04-24 23:02 | 51.47691 | -0.64465 | 2093 ft | 125 kts | 90° |
| 2026-04-24 23:02 | 51.47696 | -0.63074 | 1926 ft | 124 kts | 90° |
| 2026-04-24 23:02 | 51.47701 | -0.61700 | 1761 ft | 123 kts | 90° |
| 2026-04-24 23:03 | 51.47706 | -0.60321 | 1589 ft | 123 kts | 90° |
| 2026-04-24 23:03 | 51.47711 | -0.58953 | 1413 ft | 122 kts | 90° |
| 2026-04-24 23:03 | 51.47715 | -0.57591 | 1250 ft | 122 kts | 90° |
| 2026-04-24 23:03 | 51.47720 | -0.56233 | 1079 ft | 122 kts | 90° |
| 2026-04-24 23:04 | 51.47725 | -0.54886 | 910 ft | 123 kts | 90° |
| 2026-04-24 23:04 | 51.47731 | -0.53499 | 734 ft | 123 kts | 89° |
| 2026-04-24 23:04 | 51.47736 | -0.52148 | 571 ft | 124 kts | 89° |
| 2026-04-24 23:04 | 51.47743 | -0.50765 | 399 ft | 124 kts | 89° |
| 2026-04-24 23:05 | 51.47749 | -0.49383 | 220 ft | 124 kts | 89° |
| 2026-04-24 23:05 | 51.47755 | -0.48003 | 96 ft | 122 kts | 89° |
| 2026-04-24 23:05 | 51.47757 | -0.46935 | 92 ft | 58 kts | 89° |
| 2026-04-24 23:05 | 51.47759 | -0.46548 | 91 ft | 30 kts | 90° |
| 2026-04-24 23:06 | 51.47755 | -0.46235 | 87 ft | 18 kts | 110° |
| 2026-04-24 23:06 | 51.47654 | -0.46095 | 90 ft | 20 kts | 146° |
| 2026-04-24 23:06 | 51.47556 | -0.46103 | 89 ft | 8 kts | 202° |
| 2026-04-24 23:06 | 51.47516 | -0.46174 | 88 ft | 11 kts | 259° |
| 2026-04-24 23:07 | 51.47518 | -0.46305 | 87 ft | 13 kts | 271° |
| 2026-04-24 23:07 | 51.47515 | -0.46468 | 87 ft | 16 kts | 268° |
| 2026-04-24 23:07 | 51.47511 | -0.46662 | 89 ft | 19 kts | 269° |
| 2026-04-24 23:07 | 51.47495 | -0.46872 | 89 ft | 20 kts | 268° |
| 2026-04-24 23:08 | 51.47491 | -0.47105 | 87 ft | 22 kts | 269° |
| 2026-04-24 23:08 | 51.47491 | -0.47362 | 87 ft | 24 kts | 270° |
| 2026-04-24 23:08 | 51.47492 | -0.47640 | 87 ft | 26 kts | 271° |
| 2026-04-24 23:08 | 51.47495 | -0.47938 | 91 ft | 27 kts | 265° |
| 2026-04-24 23:09 | 51.47491 | -0.48249 | 87 ft | 28 kts | 270° |
| 2026-04-24 23:09 | 51.47483 | -0.48453 | 87 ft | 6 kts | 248° |
| 2026-04-24 23:09 | 51.47405 | -0.48474 | 87 ft | 17 kts | 175° |
| 2026-04-24 23:09 | 51.47404 | -0.48474 | 87 ft | 17 kts | 175° |
| 2026-04-24 23:10 | 51.47364 | -0.48473 | 87 ft | 18 kts | 184° |
| 2026-04-24 23:11 | 51.47240 | -0.48478 | 87 ft | 4 kts | 191° |
| 2026-04-24 23:11 | 51.47237 | -0.48483 | 87 ft | 1 kts | 231° |
| 2026-04-24 23:11 | 51.47231 | -0.48536 | 90 ft | 9 kts | 263° |
| 2026-04-24 23:11 | 51.47231 | -0.48572 | 88 ft | 2 kts | 270° |
| 2026-04-24 23:12 | 51.47232 | -0.48589 | 87 ft | 0 kts | 270° |